sensor_id;sensor_type;location;lat;lon;timestamp;pressure;altitude;pressure_sealevel;temperature;humidity
70971;BME280;58632;51.718;19.446;2023-04-05T00:02:16;100180.32;;;-2.78;100.00
70971;BME280;58632;51.718;19.446;2023-04-05T00:04:43;100178.86;;;-2.84;100.00
70971;BME280;58632;51.718;19.446;2023-04-05T00:07:14;100176.98;;;-2.89;100.00
70971;BME280;58632;51.718;19.446;2023-04-05T00:09:41;100171.34;;;-2.93;100.00
70971;BME280;58632;51.718;19.446;2023-04-05T00:12:07;100170.18;;;-2.96;100.00
70971;BME280;58632;51.718;19.446;2023-04-05T00:14:32;100158.77;;;-3.01;100.00
70971;BME280;58632;51.718;19.446;2023-04-05T00:16:58;100159.80;;;-3.00;100.00
70971;BME280;58632;51.718;19.446;2023-04-05T00:19:23;100155.88;;;-3.00;100.00
70971;BME280;58632;51.718;19.446;2023-04-05T00:21:49;100153.83;;;-3.02;100.00
70971;BME280;58632;51.718;19.446;2023-04-05T00:24:18;100152.37;;;-3.07;100.00
70971;BME280;58632;51.718;19.446;2023-04-05T00:26:44;100146.80;;;-3.14;100.00
70971;BME280;58632;51.718;19.446;2023-04-05T00:29:10;100142.77;;;-3.19;100.00
70971;BME280;58632;51.718;19.446;2023-04-05T00:31:36;100141.48;;;-3.26;100.00
70971;BME280;58632;51.718;19.446;2023-04-05T00:34:01;100139.35;;;-3.35;100.00
70971;BME280;58632;51.718;19.446;2023-04-05T00:36:27;100134.80;;;-3.45;100.00
70971;BME280;58632;51.718;19.446;2023-04-05T00:38:53;100134.39;;;-3.50;100.00
70971;BME280;58632;51.718;19.446;2023-04-05T00:41:19;100133.17;;;-3.56;100.00
70971;BME280;58632;51.718;19.446;2023-04-05T00:43:45;100126.72;;;-3.62;100.00
70971;BME280;58632;51.718;19.446;2023-04-05T00:46:11;100124.27;;;-3.68;100.00
70971;BME280;58632;51.718;19.446;2023-04-05T00:48:36;100118.08;;;-3.74;100.00
70971;BME280;58632;51.718;19.446;2023-04-05T00:51:02;100119.77;;;-3.79;100.00
70971;BME280;58632;51.718;19.446;2023-04-05T00:53:28;100117.08;;;-3.82;100.00
70971;BME280;58632;51.718;19.446;2023-04-05T00:55:54;100118.81;;;-3.85;100.00
70971;BME280;58632;51.718;19.446;2023-04-05T00:58:20;100113.79;;;-3.87;100.00
70971;BME280;58632;51.718;19.446;2023-04-05T01:00:51;100115.17;;;-3.87;100.00
70971;BME280;58632;51.718;19.446;2023-04-05T01:03:20;100118.04;;;-3.86;100.00
70971;BME280;58632;51.718;19.446;2023-04-05T01:05:52;100113.46;;;-3.83;100.00
70971;BME280;58632;51.718;19.446;2023-04-05T01:08:28;100115.59;;;-3.82;100.00
70971;BME280;58632;51.718;19.446;2023-04-05T01:11:01;100113.76;;;-3.80;100.00
70971;BME280;58632;51.718;19.446;2023-04-05T01:13:28;100113.48;;;-3.81;100.00
70971;BME280;58632;51.718;19.446;2023-04-05T01:15:54;100110.61;;;-3.84;100.00
70971;BME280;58632;51.718;19.446;2023-04-05T01:18:19;100107.95;;;-3.85;100.00
70971;BME280;58632;51.718;19.446;2023-04-05T01:21:02;100104.20;;;-3.89;100.00
70971;BME280;58632;51.718;19.446;2023-04-05T01:23:44;100098.56;;;-3.94;100.00
70971;BME280;58632;51.718;19.446;2023-04-05T01:31:25;100100.88;;;-4.17;100.00
70971;BME280;58632;51.718;19.446;2023-04-05T01:36:39;100097.55;;;-4.34;100.00
70971;BME280;58632;51.718;19.446;2023-04-05T01:39:05;100092.79;;;-4.40;100.00
70971;BME280;58632;51.718;19.446;2023-04-05T01:41:32;100092.16;;;-4.44;100.00
70971;BME280;58632;51.718;19.446;2023-04-05T01:43:58;100090.09;;;-4.48;100.00
70971;BME280;58632;51.718;19.446;2023-04-05T01:46:23;100090.95;;;-4.49;100.00
70971;BME280;58632;51.718;19.446;2023-04-05T01:48:49;100084.77;;;-4.49;100.00
70971;BME280;58632;51.718;19.446;2023-04-05T01:51:15;100081.04;;;-4.48;100.00
70971;BME280;58632;51.718;19.446;2023-04-05T01:53:40;100082.48;;;-4.43;100.00
70971;BME280;58632;51.718;19.446;2023-04-05T01:56:06;100083.90;;;-4.40;100.00
70971;BME280;58632;51.718;19.446;2023-04-05T01:58:32;100081.79;;;-4.38;100.00
70971;BME280;58632;51.718;19.446;2023-04-05T02:00:57;100082.44;;;-4.36;100.00
70971;BME280;58632;51.718;19.446;2023-04-05T02:03:23;100084.63;;;-4.38;100.00
70971;BME280;58632;51.718;19.446;2023-04-05T02:05:48;100085.95;;;-4.41;100.00
70971;BME280;58632;51.718;19.446;2023-04-05T02:08:14;100084.81;;;-4.45;100.00
70971;BME280;58632;51.718;19.446;2023-04-05T02:10:40;100085.92;;;-4.52;100.00
70971;BME280;58632;51.718;19.446;2023-04-05T02:13:06;100080.57;;;-4.59;100.00
70971;BME280;58632;51.718;19.446;2023-04-05T02:15:31;100076.45;;;-4.66;100.00
70971;BME280;58632;51.718;19.446;2023-04-05T02:17:59;100075.20;;;-4.74;100.00
70971;BME280;58632;51.718;19.446;2023-04-05T02:20:28;100074.66;;;-4.82;100.00
70971;BME280;58632;51.718;19.446;2023-04-05T02:22:54;100075.77;;;-4.91;100.00
70971;BME280;58632;51.718;19.446;2023-04-05T02:25:19;100081.52;;;-4.99;100.00
70971;BME280;58632;51.718;19.446;2023-04-05T02:27:45;100082.91;;;-5.05;100.00
70971;BME280;58632;51.718;19.446;2023-04-05T02:30:11;100084.85;;;-5.08;100.00
70971;BME280;58632;51.718;19.446;2023-04-05T02:32:38;100084.38;;;-5.12;100.00
70971;BME280;58632;51.718;19.446;2023-04-05T02:35:06;100082.57;;;-5.13;100.00
70971;BME280;58632;51.718;19.446;2023-04-05T02:37:32;100081.26;;;-5.13;100.00
70971;BME280;58632;51.718;19.446;2023-04-05T02:39:58;100080.46;;;-5.11;100.00
70971;BME280;58632;51.718;19.446;2023-04-05T02:42:24;100077.50;;;-5.07;100.00
70971;BME280;58632;51.718;19.446;2023-04-05T02:44:50;100077.64;;;-5.03;100.00
70971;BME280;58632;51.718;19.446;2023-04-05T02:47:15;100076.31;;;-5.00;100.00
70971;BME280;58632;51.718;19.446;2023-04-05T02:49:46;100072.96;;;-4.97;100.00
70971;BME280;58632;51.718;19.446;2023-04-05T02:52:11;100074.28;;;-4.97;100.00
70971;BME280;58632;51.718;19.446;2023-04-05T02:54:37;100077.10;;;-5.00;100.00
70971;BME280;58632;51.718;19.446;2023-04-05T02:57:03;100076.05;;;-5.04;100.00
70971;BME280;58632;51.718;19.446;2023-04-05T02:59:29;100073.48;;;-5.08;100.00
70971;BME280;58632;51.718;19.446;2023-04-05T03:01:54;100075.03;;;-5.15;100.00
70971;BME280;58632;51.718;19.446;2023-04-05T03:04:20;100077.39;;;-5.20;100.00
70971;BME280;58632;51.718;19.446;2023-04-05T03:06:45;100076.88;;;-5.27;100.00
70971;BME280;58632;51.718;19.446;2023-04-05T03:09:14;100079.11;;;-5.30;100.00
70971;BME280;58632;51.718;19.446;2023-04-05T03:11:39;100087.29;;;-5.33;100.00
70971;BME280;58632;51.718;19.446;2023-04-05T03:14:04;100082.36;;;-5.34;100.00
70971;BME280;58632;51.718;19.446;2023-04-05T03:16:30;100078.53;;;-5.30;100.00
70971;BME280;58632;51.718;19.446;2023-04-05T03:18:56;100076.88;;;-5.27;100.00
70971;BME280;58632;51.718;19.446;2023-04-05T03:21:21;100077.61;;;-5.22;100.00
70971;BME280;58632;51.718;19.446;2023-04-05T03:23:47;100079.59;;;-5.17;100.00
70971;BME280;58632;51.718;19.446;2023-04-05T03:26:14;100082.21;;;-5.13;100.00
70971;BME280;58632;51.718;19.446;2023-04-05T03:28:40;100087.65;;;-5.09;100.00
70971;BME280;58632;51.718;19.446;2023-04-05T03:31:09;100091.75;;;-5.08;100.00
70971;BME280;58632;51.718;19.446;2023-04-05T03:33:35;100088.52;;;-5.11;100.00
70971;BME280;58632;51.718;19.446;2023-04-05T03:36:01;100092.89;;;-5.16;100.00
70971;BME280;58632;51.718;19.446;2023-04-05T03:38:26;100095.51;;;-5.21;100.00
70971;BME280;58632;51.718;19.446;2023-04-05T03:40:52;100098.61;;;-5.27;100.00
70971;BME280;58632;51.718;19.446;2023-04-05T03:43:18;100097.48;;;-5.32;100.00
70971;BME280;58632;51.718;19.446;2023-04-05T03:45:43;100095.73;;;-5.39;100.00
70971;BME280;58632;51.718;19.446;2023-04-05T03:48:09;100099.36;;;-5.47;100.00
70971;BME280;58632;51.718;19.446;2023-04-05T03:50:35;100096.98;;;-5.53;100.00
70971;BME280;58632;51.718;19.446;2023-04-05T03:53:00;100102.29;;;-5.58;100.00
70971;BME280;58632;51.718;19.446;2023-04-05T03:55:27;100101.52;;;-5.60;100.00
70971;BME280;58632;51.718;19.446;2023-04-05T03:57:53;100103.98;;;-5.58;100.00
70971;BME280;58632;51.718;19.446;2023-04-05T04:00:18;100104.05;;;-5.53;100.00
70971;BME280;58632;51.718;19.446;2023-04-05T04:02:47;100106.63;;;-5.44;100.00
70971;BME280;58632;51.718;19.446;2023-04-05T04:05:13;100106.98;;;-5.30;100.00
70971;BME280;58632;51.718;19.446;2023-04-05T04:07:39;100108.17;;;-5.14;100.00
70971;BME280;58632;51.718;19.446;2023-04-05T04:10:06;100108.15;;;-4.97;100.00
70971;BME280;58632;51.718;19.446;2023-04-05T04:12:32;100106.70;;;-4.77;100.00
70971;BME280;58632;51.718;19.446;2023-04-05T04:14:57;100110.15;;;-4.61;100.00
70971;BME280;58632;51.718;19.446;2023-04-05T04:17:30;100114.45;;;-4.45;100.00
70971;BME280;58632;51.718;19.446;2023-04-05T04:19:56;100114.76;;;-4.23;100.00
70971;BME280;58632;51.718;19.446;2023-04-05T04:22:22;100113.92;;;-4.11;100.00
70971;BME280;58632;51.718;19.446;2023-04-05T04:24:54;100116.46;;;-3.98;100.00
70971;BME280;58632;51.718;19.446;2023-04-05T04:27:19;100118.95;;;-3.90;100.00
70971;BME280;58632;51.718;19.446;2023-04-05T04:29:45;100117.05;;;-3.84;100.00
70971;BME280;58632;51.718;19.446;2023-04-05T04:32:15;100120.30;;;-3.80;100.00
70971;BME280;58632;51.718;19.446;2023-04-05T04:34:41;100118.42;;;-3.75;100.00
70971;BME280;58632;51.718;19.446;2023-04-05T04:37:14;100116.39;;;-3.74;100.00
70971;BME280;58632;51.718;19.446;2023-04-05T04:39:46;100119.82;;;-3.75;100.00
70971;BME280;58632;51.718;19.446;2023-04-05T04:42:13;100115.08;;;-3.75;100.00
70971;BME280;58632;51.718;19.446;2023-04-05T04:44:40;100115.13;;;-3.73;100.00
70971;BME280;58632;51.718;19.446;2023-04-05T04:47:06;100113.57;;;-3.72;100.00
70971;BME280;58632;51.718;19.446;2023-04-05T04:49:40;100115.77;;;-3.57;100.00
70971;BME280;58632;51.718;19.446;2023-04-05T04:52:06;100114.82;;;-3.26;100.00
70971;BME280;58632;51.718;19.446;2023-04-05T04:54:32;100115.30;;;-2.89;100.00
70971;BME280;58632;51.718;19.446;2023-04-05T04:56:58;100119.11;;;-2.49;100.00
70971;BME280;58632;51.718;19.446;2023-04-05T04:59:24;100115.92;;;-2.01;100.00
70971;BME280;58632;51.718;19.446;2023-04-05T05:01:49;100114.08;;;-1.61;100.00
70971;BME280;58632;51.718;19.446;2023-04-05T05:04:15;100116.92;;;-1.35;100.00
70971;BME280;58632;51.718;19.446;2023-04-05T05:06:41;100116.52;;;-1.19;100.00
70971;BME280;58632;51.718;19.446;2023-04-05T05:09:06;100116.54;;;-1.06;100.00
70971;BME280;58632;51.718;19.446;2023-04-05T05:11:32;100116.34;;;-0.92;100.00
70971;BME280;58632;51.718;19.446;2023-04-05T05:13:57;100114.10;;;-0.79;100.00
70971;BME280;58632;51.718;19.446;2023-04-05T05:16:23;100114.50;;;-0.67;100.00
70971;BME280;58632;51.718;19.446;2023-04-05T05:18:52;100109.05;;;-0.48;100.00
70971;BME280;58632;51.718;19.446;2023-04-05T05:21:17;100113.29;;;-0.18;100.00
70971;BME280;58632;51.718;19.446;2023-04-05T05:23:43;100112.91;;;0.22;100.00
70971;BME280;58632;51.718;19.446;2023-04-05T05:26:08;100114.77;;;0.41;100.00
70971;BME280;58632;51.718;19.446;2023-04-05T05:28:34;100115.52;;;0.59;100.00
70971;BME280;58632;51.718;19.446;2023-04-05T05:31:02;100115.84;;;0.75;100.00
70971;BME280;58632;51.718;19.446;2023-04-05T05:33:27;100114.21;;;0.81;100.00
70971;BME280;58632;51.718;19.446;2023-04-05T05:35:53;100112.94;;;0.83;100.00
70971;BME280;58632;51.718;19.446;2023-04-05T05:38:18;100116.88;;;0.95;100.00
70971;BME280;58632;51.718;19.446;2023-04-05T05:40:44;100119.98;;;1.07;100.00
70971;BME280;58632;51.718;19.446;2023-04-05T05:43:10;100122.02;;;1.14;100.00
70971;BME280;58632;51.718;19.446;2023-04-05T05:45:35;100124.64;;;1.21;100.00
70971;BME280;58632;51.718;19.446;2023-04-05T05:48:01;100125.86;;;1.33;100.00
70971;BME280;58632;51.718;19.446;2023-04-05T05:50:27;100127.52;;;1.39;100.00
70971;BME280;58632;51.718;19.446;2023-04-05T05:52:59;100122.70;;;1.49;100.00
70971;BME280;58632;51.718;19.446;2023-04-05T05:55:25;100124.93;;;1.62;100.00
70971;BME280;58632;51.718;19.446;2023-04-05T05:57:50;100127.02;;;1.78;100.00
70971;BME280;58632;51.718;19.446;2023-04-05T06:00:17;100125.48;;;2.03;100.00
70971;BME280;58632;51.718;19.446;2023-04-05T06:02:43;100124.98;;;2.30;100.00
70971;BME280;58632;51.718;19.446;2023-04-05T06:05:09;100124.55;;;2.69;100.00
70971;BME280;58632;51.718;19.446;2023-04-05T06:07:35;100128.09;;;3.33;100.00
70971;BME280;58632;51.718;19.446;2023-04-05T06:10:02;100128.29;;;3.89;100.00
70971;BME280;58632;51.718;19.446;2023-04-05T06:12:28;100124.13;;;4.23;100.00
70971;BME280;58632;51.718;19.446;2023-04-05T06:14:54;100123.77;;;4.61;100.00
70971;BME280;58632;51.718;19.446;2023-04-05T06:17:19;100126.15;;;5.31;100.00
70971;BME280;58632;51.718;19.446;2023-04-05T06:19:45;100122.41;;;5.84;100.00
70971;BME280;58632;51.718;19.446;2023-04-05T06:22:10;100123.69;;;5.97;92.03
70971;BME280;58632;51.718;19.446;2023-04-05T06:24:36;100119.70;;;5.88;89.82
70971;BME280;58632;51.718;19.446;2023-04-05T06:27:02;100119.27;;;5.87;92.57
70971;BME280;58632;51.718;19.446;2023-04-05T06:29:27;100121.48;;;6.07;90.85
70971;BME280;58632;51.718;19.446;2023-04-05T06:31:53;100124.08;;;5.94;85.41
70971;BME280;58632;51.718;19.446;2023-04-05T06:34:19;100128.98;;;5.83;77.46
70971;BME280;58632;51.718;19.446;2023-04-05T06:36:44;100128.29;;;5.87;73.15
70971;BME280;58632;51.718;19.446;2023-04-05T06:39:10;100131.42;;;5.80;74.39
70971;BME280;58632;51.718;19.446;2023-04-05T06:41:36;100131.75;;;5.82;68.99
70971;BME280;58632;51.718;19.446;2023-04-05T06:44:02;100134.65;;;5.70;64.33
70971;BME280;58632;51.718;19.446;2023-04-05T06:46:27;100137.05;;;5.59;65.91
70971;BME280;58632;51.718;19.446;2023-04-05T06:48:53;100138.23;;;5.39;64.75
70971;BME280;58632;51.718;19.446;2023-04-05T06:51:19;100139.70;;;5.40;68.21
70971;BME280;58632;51.718;19.446;2023-04-05T06:53:45;100134.81;;;5.71;67.21
70971;BME280;58632;51.718;19.446;2023-04-05T06:56:10;100132.09;;;5.99;67.78
70971;BME280;58632;51.718;19.446;2023-04-05T06:58:36;100131.52;;;6.25;66.08
70971;BME280;58632;51.718;19.446;2023-04-05T07:01:01;100130.06;;;6.42;60.59
70971;BME280;58632;51.718;19.446;2023-04-05T07:03:27;100131.84;;;6.57;62.25
70971;BME280;58632;51.718;19.446;2023-04-05T07:05:57;100131.13;;;6.73;56.74
70971;BME280;58632;51.718;19.446;2023-04-05T07:08:26;100127.42;;;6.70;52.36
70971;BME280;58632;51.718;19.446;2023-04-05T07:10:52;100129.63;;;6.67;52.56
70971;BME280;58632;51.718;19.446;2023-04-05T07:13:18;100124.35;;;6.67;53.74
70971;BME280;58632;51.718;19.446;2023-04-05T07:15:44;100126.81;;;6.81;53.00
70971;BME280;58632;51.718;19.446;2023-04-05T07:18:10;100124.75;;;6.95;52.60
70971;BME280;58632;51.718;19.446;2023-04-05T07:20:35;100127.12;;;7.03;50.95
70971;BME280;58632;51.718;19.446;2023-04-05T07:23:01;100123.90;;;7.03;49.46
70971;BME280;58632;51.718;19.446;2023-04-05T07:25:26;100130.87;;;7.07;48.24
70971;BME280;58632;51.718;19.446;2023-04-05T07:27:52;100127.63;;;7.05;46.49
70971;BME280;58632;51.718;19.446;2023-04-05T07:30:17;100129.25;;;6.98;45.91
70971;BME280;58632;51.718;19.446;2023-04-05T07:32:43;100128.58;;;6.99;46.06
70971;BME280;58632;51.718;19.446;2023-04-05T07:35:08;100126.17;;;7.08;45.02
70971;BME280;58632;51.718;19.446;2023-04-05T07:37:34;100120.04;;;7.13;44.97
70971;BME280;58632;51.718;19.446;2023-04-05T07:40:01;100123.98;;;7.05;42.35
70971;BME280;58632;51.718;19.446;2023-04-05T07:42:27;100127.59;;;6.85;42.84
70971;BME280;58632;51.718;19.446;2023-04-05T07:44:53;100125.70;;;6.68;42.11
70971;BME280;58632;51.718;19.446;2023-04-05T07:47:19;100129.02;;;6.78;42.33
70971;BME280;58632;51.718;19.446;2023-04-05T07:49:44;100127.11;;;6.83;42.34
70971;BME280;58632;51.718;19.446;2023-04-05T07:52:10;100130.95;;;6.95;41.28
70971;BME280;58632;51.718;19.446;2023-04-05T07:54:36;100121.36;;;6.91;41.93
70971;BME280;58632;51.718;19.446;2023-04-05T07:57:03;100121.05;;;6.96;43.40
70971;BME280;58632;51.718;19.446;2023-04-05T07:59:29;100119.56;;;6.86;42.32
70971;BME280;58632;51.718;19.446;2023-04-05T08:01:55;100123.48;;;6.82;43.88
70971;BME280;58632;51.718;19.446;2023-04-05T08:04:20;100122.33;;;7.07;43.55
70971;BME280;58632;51.718;19.446;2023-04-05T08:06:47;100124.15;;;7.14;41.23
70971;BME280;58632;51.718;19.446;2023-04-05T08:09:13;100126.55;;;7.15;41.67
70971;BME280;58632;51.718;19.446;2023-04-05T08:11:38;100123.14;;;7.17;41.50
70971;BME280;58632;51.718;19.446;2023-04-05T08:14:04;100118.77;;;7.28;42.81
70971;BME280;58632;51.718;19.446;2023-04-05T08:16:30;100119.20;;;7.14;42.99
70971;BME280;58632;51.718;19.446;2023-04-05T08:18:55;100120.74;;;7.17;42.74
70971;BME280;58632;51.718;19.446;2023-04-05T08:21:21;100122.88;;;7.21;40.68
70971;BME280;58632;51.718;19.446;2023-04-05T08:23:47;100125.49;;;6.81;40.78
70971;BME280;58632;51.718;19.446;2023-04-05T08:26:14;100126.77;;;6.48;41.12
70971;BME280;58632;51.718;19.446;2023-04-05T08:28:40;100123.71;;;6.48;41.95
70971;BME280;58632;51.718;19.446;2023-04-05T08:31:05;100117.48;;;6.65;44.04
70971;BME280;58632;51.718;19.446;2023-04-05T08:33:31;100115.45;;;6.95;46.66
70971;BME280;58632;51.718;19.446;2023-04-05T08:35:57;100114.63;;;7.27;46.69
70971;BME280;58632;51.718;19.446;2023-04-05T08:38:27;100111.12;;;7.65;44.96
70971;BME280;58632;51.718;19.446;2023-04-05T08:40:53;100107.20;;;7.65;43.16
70971;BME280;58632;51.718;19.446;2023-04-05T08:43:32;100110.48;;;7.40;41.87
70971;BME280;58632;51.718;19.446;2023-04-05T08:46:02;100110.77;;;7.18;41.27
70971;BME280;58632;51.718;19.446;2023-04-05T08:48:29;100114.33;;;7.11;41.33
70971;BME280;58632;51.718;19.446;2023-04-05T08:50:55;100112.53;;;7.06;41.22
70971;BME280;58632;51.718;19.446;2023-04-05T08:53:21;100111.86;;;7.04;41.80
70971;BME280;58632;51.718;19.446;2023-04-05T08:55:50;100111.80;;;7.00;41.41
70971;BME280;58632;51.718;19.446;2023-04-05T08:58:17;100106.77;;;6.83;41.44
70971;BME280;58632;51.718;19.446;2023-04-05T09:00:45;100107.02;;;6.79;42.34
70971;BME280;58632;51.718;19.446;2023-04-05T09:03:12;100111.11;;;6.87;42.94
70971;BME280;58632;51.718;19.446;2023-04-05T09:05:39;100112.94;;;6.90;42.18
70971;BME280;58632;51.718;19.446;2023-04-05T09:08:06;100113.99;;;6.88;40.90
70971;BME280;58632;51.718;19.446;2023-04-05T09:10:32;100111.35;;;6.86;41.03
70971;BME280;58632;51.718;19.446;2023-04-05T09:12:58;100110.41;;;6.82;41.06
70971;BME280;58632;51.718;19.446;2023-04-05T09:15:24;100110.36;;;6.87;41.22
70971;BME280;58632;51.718;19.446;2023-04-05T09:17:51;100109.34;;;6.80;40.19
70971;BME280;58632;51.718;19.446;2023-04-05T09:20:18;100108.88;;;6.68;39.74
70971;BME280;58632;51.718;19.446;2023-04-05T09:22:44;100114.86;;;6.56;39.27
70971;BME280;58632;51.718;19.446;2023-04-05T09:25:10;100115.83;;;6.48;40.57
70971;BME280;58632;51.718;19.446;2023-04-05T09:27:52;100110.96;;;6.70;40.99
70971;BME280;58632;51.718;19.446;2023-04-05T09:30:22;100111.27;;;7.26;42.66
70971;BME280;58632;51.718;19.446;2023-04-05T09:32:49;100114.30;;;7.72;40.68
70971;BME280;58632;51.718;19.446;2023-04-05T09:35:18;100109.52;;;8.07;40.34
70971;BME280;58632;51.718;19.446;2023-04-05T09:37:50;100108.55;;;8.40;39.05
70971;BME280;58632;51.718;19.446;2023-04-05T09:40:20;100108.52;;;8.69;40.15
70971;BME280;58632;51.718;19.446;2023-04-05T09:42:46;100103.70;;;9.10;40.28
70971;BME280;58632;51.718;19.446;2023-04-05T09:45:12;100105.06;;;9.32;40.17
70971;BME280;58632;51.718;19.446;2023-04-05T09:47:38;100105.96;;;9.51;38.79
70971;BME280;58632;51.718;19.446;2023-04-05T09:52:40;100108.63;;;9.31;37.14
70971;BME280;58632;51.718;19.446;2023-04-05T09:55:06;100107.58;;;9.18;36.92
70971;BME280;58632;51.718;19.446;2023-04-05T09:57:35;100107.45;;;9.20;36.37
70971;BME280;58632;51.718;19.446;2023-04-05T10:00:02;100108.09;;;9.04;35.78
70971;BME280;58632;51.718;19.446;2023-04-05T10:02:36;100104.98;;;8.82;36.21
70971;BME280;58632;51.718;19.446;2023-04-05T10:05:08;100102.09;;;8.57;35.39
70971;BME280;58632;51.718;19.446;2023-04-05T10:07:38;100101.98;;;8.17;34.86
70971;BME280;58632;51.718;19.446;2023-04-05T10:10:04;100102.73;;;7.81;35.89
70971;BME280;58632;51.718;19.446;2023-04-05T10:12:29;100102.54;;;7.67;36.71
70971;BME280;58632;51.718;19.446;2023-04-05T10:14:56;100099.52;;;7.83;37.37
70971;BME280;58632;51.718;19.446;2023-04-05T10:24:58;100089.75;;;9.19;35.28
70971;BME280;58632;51.718;19.446;2023-04-05T10:27:46;100091.42;;;9.25;35.74
70971;BME280;58632;51.718;19.446;2023-04-05T10:30:10;100090.48;;;9.28;35.93
70971;BME280;58632;51.718;19.446;2023-04-05T10:32:47;100091.27;;;9.20;34.61
70971;BME280;58632;51.718;19.446;2023-04-05T10:35:18;100088.30;;;8.96;36.28
70971;BME280;58632;51.718;19.446;2023-04-05T10:37:47;100086.15;;;8.95;36.24
70971;BME280;58632;51.718;19.446;2023-04-05T10:40:16;100087.38;;;8.80;35.73
70971;BME280;58632;51.718;19.446;2023-04-05T10:42:45;100087.78;;;8.64;34.99
70971;BME280;58632;51.718;19.446;2023-04-05T10:45:12;100087.89;;;8.21;35.39
70971;BME280;58632;51.718;19.446;2023-04-05T10:47:53;100087.30;;;7.87;36.22
70971;BME280;58632;51.718;19.446;2023-04-05T10:50:22;100083.29;;;7.52;36.61
70971;BME280;58632;51.718;19.446;2023-04-05T10:52:49;100079.59;;;7.40;36.95
70971;BME280;58632;51.718;19.446;2023-04-05T10:55:15;100078.68;;;7.38;36.96
70971;BME280;58632;51.718;19.446;2023-04-05T10:57:42;100079.46;;;7.37;36.42
70971;BME280;58632;51.718;19.446;2023-04-05T11:00:09;100073.18;;;7.25;36.95
70971;BME280;58632;51.718;19.446;2023-04-05T11:02:35;100072.77;;;7.11;36.65
70971;BME280;58632;51.718;19.446;2023-04-05T11:05:04;100072.35;;;7.14;36.88
70971;BME280;58632;51.718;19.446;2023-04-05T11:07:42;100071.73;;;6.98;36.77
70971;BME280;58632;51.718;19.446;2023-04-05T11:10:17;100065.25;;;6.98;37.54
70971;BME280;58632;51.718;19.446;2023-04-05T11:23:22;100064.58;;;7.22;37.38
70971;BME280;58632;51.718;19.446;2023-04-05T11:25:55;100060.67;;;7.20;37.73
70971;BME280;58632;51.718;19.446;2023-04-05T11:30:50;100058.95;;;7.28;38.08
70971;BME280;58632;51.718;19.446;2023-04-05T11:36:02;100057.10;;;7.61;38.23
70971;BME280;58632;51.718;19.446;2023-04-05T11:38:27;100054.83;;;7.75;38.96
70971;BME280;58632;51.718;19.446;2023-04-05T11:41:04;100053.59;;;7.94;38.78
70971;BME280;58632;51.718;19.446;2023-04-05T11:43:30;100052.91;;;8.21;37.82
70971;BME280;58632;51.718;19.446;2023-04-05T11:45:55;100055.27;;;8.41;37.63
70971;BME280;58632;51.718;19.446;2023-04-05T11:48:21;100051.00;;;8.35;36.98
70971;BME280;58632;51.718;19.446;2023-04-05T11:50:47;100050.67;;;8.42;37.31
70971;BME280;58632;51.718;19.446;2023-04-05T11:53:15;100047.89;;;8.60;36.95
70971;BME280;58632;51.718;19.446;2023-04-05T11:55:48;100048.41;;;8.69;36.39
70971;BME280;58632;51.718;19.446;2023-04-05T11:58:17;100049.31;;;8.59;36.31
70971;BME280;58632;51.718;19.446;2023-04-05T12:00:45;100054.00;;;8.35;36.20
70971;BME280;58632;51.718;19.446;2023-04-05T12:03:11;100049.16;;;8.01;36.05
70971;BME280;58632;51.718;19.446;2023-04-05T12:06:10;100056.02;;;7.69;36.52
70971;BME280;58632;51.718;19.446;2023-04-05T12:11:05;100052.18;;;7.12;36.99
70971;BME280;58632;51.718;19.446;2023-04-05T12:13:32;100048.69;;;7.08;37.25
70971;BME280;58632;51.718;19.446;2023-04-05T12:16:00;100047.30;;;7.11;37.72
70971;BME280;58632;51.718;19.446;2023-04-05T12:18:26;100046.77;;;7.13;37.93
70971;BME280;58632;51.718;19.446;2023-04-05T12:20:53;100045.23;;;7.18;38.61
70971;BME280;58632;51.718;19.446;2023-04-05T12:23:19;100039.98;;;7.47;39.03
70971;BME280;58632;51.718;19.446;2023-04-05T12:25:46;100040.95;;;7.77;39.08
70971;BME280;58632;51.718;19.446;2023-04-05T12:28:11;100042.75;;;7.93;37.61
70971;BME280;58632;51.718;19.446;2023-04-05T12:30:46;100038.16;;;8.01;37.06
70971;BME280;58632;51.718;19.446;2023-04-05T12:33:12;100037.07;;;8.07;36.59
70971;BME280;58632;51.718;19.446;2023-04-05T12:35:38;100035.92;;;8.07;36.87
70971;BME280;58632;51.718;19.446;2023-04-05T12:38:04;100032.69;;;8.05;36.90
70971;BME280;58632;51.718;19.446;2023-04-05T12:40:30;100033.70;;;7.96;36.16
70971;BME280;58632;51.718;19.446;2023-04-05T12:43:00;100032.98;;;7.80;36.49
70971;BME280;58632;51.718;19.446;2023-04-05T12:45:26;100038.36;;;7.68;36.71
70971;BME280;58632;51.718;19.446;2023-04-05T12:47:55;100037.05;;;7.54;36.90
70971;BME280;58632;51.718;19.446;2023-04-05T12:50:24;100041.54;;;7.37;36.98
70971;BME280;58632;51.718;19.446;2023-04-05T12:52:51;100034.61;;;7.22;37.68
70971;BME280;58632;51.718;19.446;2023-04-05T12:55:17;100039.41;;;7.18;37.87
70971;BME280;58632;51.718;19.446;2023-04-05T12:57:42;100041.66;;;7.20;38.70
70971;BME280;58632;51.718;19.446;2023-04-05T13:00:08;100039.73;;;7.30;38.88
70971;BME280;58632;51.718;19.446;2023-04-05T13:02:35;100039.95;;;7.34;38.57
70971;BME280;58632;51.718;19.446;2023-04-05T13:05:00;100037.81;;;7.39;39.17
70971;BME280;58632;51.718;19.446;2023-04-05T13:07:26;100037.94;;;7.49;38.90
70971;BME280;58632;51.718;19.446;2023-04-05T13:09:51;100042.37;;;7.55;37.70
70971;BME280;58632;51.718;19.446;2023-04-05T13:12:17;100042.19;;;7.64;38.34
70971;BME280;58632;51.718;19.446;2023-04-05T13:14:43;100032.21;;;7.74;38.88
70971;BME280;58632;51.718;19.446;2023-04-05T13:17:08;100029.50;;;7.83;38.91